sensor_id;sensor_type;location;lat;lon;timestamp;P1;durP1;ratioP1;P2;durP2;ratioP2
15466;SDS011;7834;49.452;11.056;2023-06-19T00:00:17;12.15;;;10.95;;
15466;SDS011;7834;49.452;11.056;2023-06-19T00:02:43;12.40;;;11.30;;
15466;SDS011;7834;49.452;11.056;2023-06-19T00:05:10;11.90;;;10.63;;
15466;SDS011;7834;49.452;11.056;2023-06-19T00:07:36;11.77;;;10.57;;
15466;SDS011;7834;49.452;11.056;2023-06-19T00:10:03;12.70;;;11.18;;
15466;SDS011;7834;49.452;11.056;2023-06-19T00:12:29;12.32;;;11.13;;
15466;SDS011;7834;49.452;11.056;2023-06-19T00:14:55;12.20;;;11.10;;
15466;SDS011;7834;49.452;11.056;2023-06-19T00:17:21;11.73;;;10.52;;
15466;SDS011;7834;49.452;11.056;2023-06-19T00:19:47;11.27;;;10.18;;
15466;SDS011;7834;49.452;11.056;2023-06-19T00:22:14;11.02;;;10.02;;
15466;SDS011;7834;49.452;11.056;2023-06-19T00:24:40;10.97;;;9.97;;
15466;SDS011;7834;49.452;11.056;2023-06-19T00:27:06;11.73;;;10.55;;
15466;SDS011;7834;49.452;11.056;2023-06-19T00:29:32;11.32;;;10.13;;
15466;SDS011;7834;49.452;11.056;2023-06-19T00:31:59;11.15;;;10.18;;
15466;SDS011;7834;49.452;11.056;2023-06-19T00:34:25;11.53;;;10.43;;
15466;SDS011;7834;49.452;11.056;2023-06-19T00:36:51;11.02;;;9.93;;
15466;SDS011;7834;49.452;11.056;2023-06-19T00:39:21;11.63;;;10.63;;
15466;SDS011;7834;49.452;11.056;2023-06-19T00:41:47;11.40;;;10.15;;
15466;SDS011;7834;49.452;11.056;2023-06-19T00:44:15;10.98;;;9.98;;
15466;SDS011;7834;49.452;11.056;2023-06-19T00:46:41;11.73;;;10.57;;
15466;SDS011;7834;49.452;11.056;2023-06-19T00:49:07;11.73;;;10.52;;
15466;SDS011;7834;49.452;11.056;2023-06-19T00:51:34;11.38;;;10.18;;
15466;SDS011;7834;49.452;11.056;2023-06-19T00:54:00;10.77;;;9.75;;
15466;SDS011;7834;49.452;11.056;2023-06-19T00:56:26;11.95;;;10.85;;
15466;SDS011;7834;49.452;11.056;2023-06-19T00:58:53;11.73;;;10.60;;
15466;SDS011;7834;49.452;11.056;2023-06-19T01:01:20;11.15;;;10.00;;
15466;SDS011;7834;49.452;11.056;2023-06-19T01:03:48;11.23;;;10.23;;
15466;SDS011;7834;49.452;11.056;2023-06-19T01:06:20;10.98;;;9.88;;
15466;SDS011;7834;49.452;11.056;2023-06-19T01:11:14;10.98;;;9.98;;
15466;SDS011;7834;49.452;11.056;2023-06-19T01:16:21;11.07;;;10.02;;
15466;SDS011;7834;49.452;11.056;2023-06-19T01:18:47;10.60;;;9.70;;
15466;SDS011;7834;49.452;11.056;2023-06-19T01:21:17;10.67;;;9.60;;
15466;SDS011;7834;49.452;11.056;2023-06-19T01:23:44;10.52;;;9.63;;
15466;SDS011;7834;49.452;11.056;2023-06-19T01:26:10;10.40;;;9.40;;
15466;SDS011;7834;49.452;11.056;2023-06-19T01:28:37;10.27;;;9.27;;
15466;SDS011;7834;49.452;11.056;2023-06-19T01:31:08;10.10;;;9.05;;
15466;SDS011;7834;49.452;11.056;2023-06-19T01:33:36;10.27;;;9.25;;
15466;SDS011;7834;49.452;11.056;2023-06-19T01:36:03;10.15;;;8.93;;
15466;SDS011;7834;49.452;11.056;2023-06-19T01:38:30;9.73;;;8.82;;
15466;SDS011;7834;49.452;11.056;2023-06-19T01:40:56;9.90;;;8.98;;
15466;SDS011;7834;49.452;11.056;2023-06-19T01:43:23;9.23;;;8.43;;
15466;SDS011;7834;49.452;11.056;2023-06-19T01:45:50;10.38;;;9.48;;
15466;SDS011;7834;49.452;11.056;2023-06-19T01:48:17;11.02;;;9.93;;
15466;SDS011;7834;49.452;11.056;2023-06-19T01:50:49;11.40;;;10.30;;
15466;SDS011;7834;49.452;11.056;2023-06-19T01:53:15;11.02;;;10.02;;
15466;SDS011;7834;49.452;11.056;2023-06-19T01:55:41;12.17;;;10.93;;
15466;SDS011;7834;49.452;11.056;2023-06-19T01:58:07;11.98;;;10.88;;
15466;SDS011;7834;49.452;11.056;2023-06-19T02:00:33;11.52;;;10.43;;
15466;SDS011;7834;49.452;11.056;2023-06-19T02:03:02;11.45;;;10.38;;
15466;SDS011;7834;49.452;11.056;2023-06-19T02:05:29;11.43;;;10.40;;
15466;SDS011;7834;49.452;11.056;2023-06-19T02:07:55;12.07;;;10.93;;
15466;SDS011;7834;49.452;11.056;2023-06-19T02:10:21;11.52;;;10.40;;
15466;SDS011;7834;49.452;11.056;2023-06-19T02:12:48;11.90;;;10.70;;
15466;SDS011;7834;49.452;11.056;2023-06-19T02:15:14;11.02;;;10.02;;
15466;SDS011;7834;49.452;11.056;2023-06-19T02:17:40;11.35;;;10.27;;
15466;SDS011;7834;49.452;11.056;2023-06-19T02:20:07;11.55;;;10.43;;
15466;SDS011;7834;49.452;11.056;2023-06-19T02:22:34;11.45;;;10.35;;
15466;SDS011;7834;49.452;11.056;2023-06-19T02:25:00;11.23;;;10.20;;
15466;SDS011;7834;49.452;11.056;2023-06-19T02:27:26;11.27;;;10.18;;
15466;SDS011;7834;49.452;11.056;2023-06-19T02:29:52;11.50;;;10.30;;
15466;SDS011;7834;49.452;11.056;2023-06-19T02:32:18;11.43;;;9.88;;
15466;SDS011;7834;49.452;11.056;2023-06-19T02:34:45;11.07;;;9.97;;
15466;SDS011;7834;49.452;11.056;2023-06-19T02:37:11;10.48;;;9.48;;
15466;SDS011;7834;49.452;11.056;2023-06-19T02:39:37;11.65;;;9.80;;
15466;SDS011;7834;49.452;11.056;2023-06-19T02:42:03;10.53;;;9.43;;
15466;SDS011;7834;49.452;11.056;2023-06-19T02:44:29;10.18;;;9.20;;
15466;SDS011;7834;49.452;11.056;2023-06-19T02:46:55;9.75;;;8.80;;
15466;SDS011;7834;49.452;11.056;2023-06-19T02:49:21;9.82;;;8.90;;
15466;SDS011;7834;49.452;11.056;2023-06-19T02:51:47;10.45;;;9.45;;
15466;SDS011;7834;49.452;11.056;2023-06-19T02:54:13;9.80;;;8.85;;
15466;SDS011;7834;49.452;11.056;2023-06-19T02:56:39;9.88;;;9.05;;
15466;SDS011;7834;49.452;11.056;2023-06-19T02:59:05;9.90;;;8.90;;
15466;SDS011;7834;49.452;11.056;2023-06-19T03:01:32;9.88;;;8.88;;
15466;SDS011;7834;49.452;11.056;2023-06-19T03:03:59;9.88;;;8.95;;
15466;SDS011;7834;49.452;11.056;2023-06-19T03:06:25;10.57;;;9.55;;
15466;SDS011;7834;49.452;11.056;2023-06-19T03:08:51;9.77;;;8.82;;
15466;SDS011;7834;49.452;11.056;2023-06-19T03:11:17;9.93;;;9.03;;
15466;SDS011;7834;49.452;11.056;2023-06-19T03:14:01;9.85;;;8.95;;
15466;SDS011;7834;49.452;11.056;2023-06-19T03:16:32;9.50;;;8.70;;
15466;SDS011;7834;49.452;11.056;2023-06-19T03:18:58;9.95;;;9.00;;
15466;SDS011;7834;49.452;11.056;2023-06-19T03:21:24;9.45;;;8.55;;
15466;SDS011;7834;49.452;11.056;2023-06-19T03:23:50;9.75;;;8.75;;
15466;SDS011;7834;49.452;11.056;2023-06-19T03:26:16;9.93;;;8.93;;
15466;SDS011;7834;49.452;11.056;2023-06-19T03:28:42;10.35;;;9.25;;
15466;SDS011;7834;49.452;11.056;2023-06-19T03:31:08;9.75;;;8.80;;
15466;SDS011;7834;49.452;11.056;2023-06-19T03:33:34;10.30;;;9.30;;
15466;SDS011;7834;49.452;11.056;2023-06-19T03:36:00;10.53;;;9.43;;
15466;SDS011;7834;49.452;11.056;2023-06-19T03:38:27;10.80;;;9.80;;
15466;SDS011;7834;49.452;11.056;2023-06-19T03:40:53;10.85;;;9.75;;
15466;SDS011;7834;49.452;11.056;2023-06-19T03:43:19;10.82;;;9.82;;
15466;SDS011;7834;49.452;11.056;2023-06-19T03:45:45;12.55;;;10.05;;
15466;SDS011;7834;49.452;11.056;2023-06-19T03:48:11;11.07;;;10.07;;
15466;SDS011;7834;49.452;11.056;2023-06-19T03:50:37;9.93;;;9.00;;
15466;SDS011;7834;49.452;11.056;2023-06-19T03:53:03;11.52;;;9.77;;
15466;SDS011;7834;49.452;11.056;2023-06-19T03:55:29;11.57;;;9.63;;
15466;SDS011;7834;49.452;11.056;2023-06-19T03:57:55;11.98;;;9.25;;
15466;SDS011;7834;49.452;11.056;2023-06-19T04:00:21;10.35;;;9.35;;
15466;SDS011;7834;49.452;11.056;2023-06-19T04:02:47;10.88;;;9.38;;
15466;SDS011;7834;49.452;11.056;2023-06-19T04:05:14;11.00;;;9.90;;
15466;SDS011;7834;49.452;11.056;2023-06-19T04:07:40;10.75;;;9.23;;
15466;SDS011;7834;49.452;11.056;2023-06-19T04:10:07;10.50;;;9.50;;
15466;SDS011;7834;49.452;11.056;2023-06-19T04:12:33;10.73;;;9.50;;
15466;SDS011;7834;49.452;11.056;2023-06-19T04:14:59;10.55;;;9.52;;
15466;SDS011;7834;49.452;11.056;2023-06-19T04:17:25;10.80;;;9.82;;
15466;SDS011;7834;49.452;11.056;2023-06-19T04:19:51;9.52;;;8.63;;
15466;SDS011;7834;49.452;11.056;2023-06-19T04:22:17;10.02;;;9.02;;
15466;SDS011;7834;49.452;11.056;2023-06-19T04:24:43;10.50;;;9.40;;
15466;SDS011;7834;49.452;11.056;2023-06-19T04:27:09;10.80;;;9.35;;
15466;SDS011;7834;49.452;11.056;2023-06-19T04:29:35;11.65;;;9.57;;
15466;SDS011;7834;49.452;11.056;2023-06-19T04:32:01;10.68;;;9.57;;
15466;SDS011;7834;49.452;11.056;2023-06-19T04:34:36;12.50;;;10.05;;
15466;SDS011;7834;49.452;11.056;2023-06-19T04:37:03;12.07;;;10.20;;
15466;SDS011;7834;49.452;11.056;2023-06-19T04:39:29;12.75;;;10.15;;
15466;SDS011;7834;49.452;11.056;2023-06-19T04:41:55;11.60;;;10.40;;
15466;SDS011;7834;49.452;11.056;2023-06-19T04:44:21;11.90;;;10.70;;
15466;SDS011;7834;49.452;11.056;2023-06-19T04:46:47;12.52;;;11.23;;
15466;SDS011;7834;49.452;11.056;2023-06-19T04:49:13;12.50;;;11.10;;
15466;SDS011;7834;49.452;11.056;2023-06-19T04:51:40;15.27;;;12.32;;
15466;SDS011;7834;49.452;11.056;2023-06-19T04:54:06;13.65;;;12.20;;
15466;SDS011;7834;49.452;11.056;2023-06-19T04:56:32;12.45;;;11.02;;
15466;SDS011;7834;49.452;11.056;2023-06-19T04:58:58;13.73;;;11.02;;
15466;SDS011;7834;49.452;11.056;2023-06-19T05:01:26;11.95;;;10.00;;
15466;SDS011;7834;49.452;11.056;2023-06-19T05:03:53;11.18;;;10.10;;
15466;SDS011;7834;49.452;11.056;2023-06-19T05:06:19;11.82;;;10.70;;
15466;SDS011;7834;49.452;11.056;2023-06-19T05:08:46;11.75;;;10.57;;
15466;SDS011;7834;49.452;11.056;2023-06-19T05:11:12;13.80;;;11.38;;
15466;SDS011;7834;49.452;11.056;2023-06-19T05:13:38;13.90;;;11.50;;
15466;SDS011;7834;49.452;11.056;2023-06-19T05:16:04;18.67;;;12.35;;
15466;SDS011;7834;49.452;11.056;2023-06-19T05:18:30;16.80;;;12.40;;
15466;SDS011;7834;49.452;11.056;2023-06-19T05:20:56;13.40;;;11.32;;
15466;SDS011;7834;49.452;11.056;2023-06-19T05:23:22;12.70;;;11.18;;
15466;SDS011;7834;49.452;11.056;2023-06-19T05:25:49;15.38;;;12.15;;
15466;SDS011;7834;49.452;11.056;2023-06-19T05:28:15;16.35;;;12.32;;
15466;SDS011;7834;49.452;11.056;2023-06-19T05:30:41;15.27;;;11.63;;
15466;SDS011;7834;49.452;11.056;2023-06-19T05:33:07;17.52;;;11.15;;
15466;SDS011;7834;49.452;11.056;2023-06-19T05:35:34;14.70;;;11.43;;
15466;SDS011;7834;49.452;11.056;2023-06-19T05:38:00;13.45;;;10.57;;
15466;SDS011;7834;49.452;11.056;2023-06-19T05:40:26;12.73;;;10.27;;
15466;SDS011;7834;49.452;11.056;2023-06-19T05:42:53;11.35;;;10.25;;
15466;SDS011;7834;49.452;11.056;2023-06-19T05:45:20;14.27;;;10.23;;
15466;SDS011;7834;49.452;11.056;2023-06-19T05:47:46;12.43;;;9.68;;
15466;SDS011;7834;49.452;11.056;2023-06-19T05:50:12;10.27;;;9.18;;
15466;SDS011;7834;49.452;11.056;2023-06-19T05:52:38;10.80;;;9.43;;
15466;SDS011;7834;49.452;11.056;2023-06-19T05:55:08;11.63;;;9.35;;
15466;SDS011;7834;49.452;11.056;2023-06-19T05:57:34;10.38;;;9.27;;
15466;SDS011;7834;49.452;11.056;2023-06-19T06:00:00;11.00;;;8.70;;
15466;SDS011;7834;49.452;11.056;2023-06-19T06:02:26;9.85;;;8.82;;
15466;SDS011;7834;49.452;11.056;2023-06-19T06:04:53;10.95;;;9.48;;
15466;SDS011;7834;49.452;11.056;2023-06-19T06:07:21;9.63;;;8.67;;
15466;SDS011;7834;49.452;11.056;2023-06-19T06:09:47;9.68;;;8.68;;
15466;SDS011;7834;49.452;11.056;2023-06-19T06:12:13;9.67;;;8.60;;
15466;SDS011;7834;49.452;11.056;2023-06-19T06:14:40;9.90;;;8.90;;
15466;SDS011;7834;49.452;11.056;2023-06-19T06:17:06;9.52;;;8.38;;
15466;SDS011;7834;49.452;11.056;2023-06-19T06:19:33;9.10;;;8.20;;
15466;SDS011;7834;49.452;11.056;2023-06-19T06:21:59;9.02;;;8.05;;
15466;SDS011;7834;49.452;11.056;2023-06-19T06:24:25;11.13;;;8.53;;
15466;SDS011;7834;49.452;11.056;2023-06-19T06:26:51;9.00;;;8.10;;
15466;SDS011;7834;49.452;11.056;2023-06-19T06:29:17;8.87;;;8.07;;
15466;SDS011;7834;49.452;11.056;2023-06-19T06:31:46;10.63;;;8.50;;
15466;SDS011;7834;49.452;11.056;2023-06-19T06:34:12;9.27;;;8.35;;
15466;SDS011;7834;49.452;11.056;2023-06-19T06:36:38;8.85;;;8.07;;
15466;SDS011;7834;49.452;11.056;2023-06-19T06:39:05;8.85;;;7.93;;
15466;SDS011;7834;49.452;11.056;2023-06-19T06:41:31;9.60;;;8.70;;
15466;SDS011;7834;49.452;11.056;2023-06-19T06:43:57;9.70;;;8.70;;
15466;SDS011;7834;49.452;11.056;2023-06-19T06:46:23;9.90;;;8.90;;
15466;SDS011;7834;49.452;11.056;2023-06-19T06:48:49;11.30;;;9.00;;
15466;SDS011;7834;49.452;11.056;2023-06-19T06:51:15;12.20;;;10.02;;
15466;SDS011;7834;49.452;11.056;2023-06-19T06:53:41;9.70;;;8.70;;
15466;SDS011;7834;49.452;11.056;2023-06-19T06:56:07;9.20;;;8.30;;
15466;SDS011;7834;49.452;11.056;2023-06-19T06:58:33;9.30;;;8.30;;
15466;SDS011;7834;49.452;11.056;2023-06-19T07:00:59;11.00;;;8.23;;
15466;SDS011;7834;49.452;11.056;2023-06-19T07:03:25;8.45;;;7.55;;
15466;SDS011;7834;49.452;11.056;2023-06-19T07:05:54;9.38;;;7.90;;
15466;SDS011;7834;49.452;11.056;2023-06-19T07:08:20;8.00;;;7.05;;
15466;SDS011;7834;49.452;11.056;2023-06-19T07:10:46;9.30;;;6.70;;
15466;SDS011;7834;49.452;11.056;2023-06-19T07:13:12;8.63;;;6.87;;
15466;SDS011;7834;49.452;11.056;2023-06-19T07:15:38;7.32;;;6.63;;
15466;SDS011;7834;49.452;11.056;2023-06-19T07:18:04;7.40;;;6.70;;
15466;SDS011;7834;49.452;11.056;2023-06-19T07:20:30;7.13;;;6.50;;
15466;SDS011;7834;49.452;11.056;2023-06-19T07:22:56;10.10;;;6.60;;
15466;SDS011;7834;49.452;11.056;2023-06-19T07:25:22;8.23;;;6.78;;
15466;SDS011;7834;49.452;11.056;2023-06-19T07:27:50;7.18;;;6.25;;
15466;SDS011;7834;49.452;11.056;2023-06-19T07:30:16;7.05;;;6.40;;
15466;SDS011;7834;49.452;11.056;2023-06-19T07:32:43;7.63;;;6.50;;
15466;SDS011;7834;49.452;11.056;2023-06-19T07:35:09;8.13;;;6.07;;
15466;SDS011;7834;49.452;11.056;2023-06-19T07:37:36;6.78;;;6.18;;
15466;SDS011;7834;49.452;11.056;2023-06-19T07:40:02;8.23;;;7.28;;
15466;SDS011;7834;49.452;11.056;2023-06-19T07:42:28;8.40;;;6.20;;
15466;SDS011;7834;49.452;11.056;2023-06-19T07:44:54;6.87;;;5.73;;
15466;SDS011;7834;49.452;11.056;2023-06-19T07:47:20;8.75;;;6.00;;
15466;SDS011;7834;49.452;11.056;2023-06-19T07:49:46;6.40;;;5.80;;
15466;SDS011;7834;49.452;11.056;2023-06-19T07:52:12;6.00;;;5.40;;
15466;SDS011;7834;49.452;11.056;2023-06-19T07:54:52;5.50;;;5.00;;
15466;SDS011;7834;49.452;11.056;2023-06-19T07:57:18;5.50;;;5.00;;
15466;SDS011;7834;49.452;11.056;2023-06-19T07:59:45;5.60;;;4.97;;
15466;SDS011;7834;49.452;11.056;2023-06-19T08:02:11;6.00;;;5.00;;
15466;SDS011;7834;49.452;11.056;2023-06-19T08:04:37;5.53;;;5.03;;
15466;SDS011;7834;49.452;11.056;2023-06-19T08:07:03;6.10;;;5.20;;
15466;SDS011;7834;49.452;11.056;2023-06-19T08:09:29;7.13;;;5.82;;
15466;SDS011;7834;49.452;11.056;2023-06-19T08:11:55;9.75;;;5.90;;
15466;SDS011;7834;49.452;11.056;2023-06-19T08:14:21;13.20;;;9.13;;
15466;SDS011;7834;49.452;11.056;2023-06-19T08:16:47;5.82;;;5.10;;
15466;SDS011;7834;49.452;11.056;2023-06-19T08:19:13;5.32;;;4.53;;
15466;SDS011;7834;49.452;11.056;2023-06-19T08:21:39;7.13;;;4.90;;
15466;SDS011;7834;49.452;11.056;2023-06-19T08:24:05;5.10;;;4.60;;
15466;SDS011;7834;49.452;11.056;2023-06-19T08:26:31;4.93;;;4.40;;
15466;SDS011;7834;49.452;11.056;2023-06-19T08:28:58;5.25;;;4.80;;
15466;SDS011;7834;49.452;11.056;2023-06-19T08:31:24;5.50;;;4.40;;
15466;SDS011;7834;49.452;11.056;2023-06-19T08:33:53;9.55;;;5.30;;
15466;SDS011;7834;49.452;11.056;2023-06-19T08:36:19;6.72;;;4.50;;
15466;SDS011;7834;49.452;11.056;2023-06-19T08:38:45;6.80;;;4.70;;
15466;SDS011;7834;49.452;11.056;2023-06-19T08:41:14;6.82;;;4.30;;
15466;SDS011;7834;49.452;11.056;2023-06-19T08:43:40;4.95;;;3.88;;
15466;SDS011;7834;49.452;11.056;2023-06-19T08:46:10;4.37;;;3.97;;
15466;SDS011;7834;49.452;11.056;2023-06-19T08:48:36;4.32;;;3.95;;
15466;SDS011;7834;49.452;11.056;2023-06-19T08:51:03;4.43;;;4.03;;
15466;SDS011;7834;49.452;11.056;2023-06-19T08:53:34;4.68;;;4.22;;
15466;SDS011;7834;49.452;11.056;2023-06-19T08:56:01;5.00;;;4.00;;
15466;SDS011;7834;49.452;11.056;2023-06-19T08:58:27;5.03;;;4.22;;
15466;SDS011;7834;49.452;11.056;2023-06-19T09:00:53;4.60;;;4.20;;
15466;SDS011;7834;49.452;11.056;2023-06-19T09:03:20;6.28;;;4.45;;
15466;SDS011;7834;49.452;11.056;2023-06-19T09:05:47;4.40;;;4.00;;
15466;SDS011;7834;49.452;11.056;2023-06-19T09:08:16;5.07;;;4.57;;
15466;SDS011;7834;49.452;11.056;2023-06-19T09:10:43;6.53;;;4.40;;
15466;SDS011;7834;49.452;11.056;2023-06-19T09:13:09;4.85;;;3.92;;
15466;SDS011;7834;49.452;11.056;2023-06-19T09:15:36;4.85;;;4.35;;
15466;SDS011;7834;49.452;11.056;2023-06-19T09:18:09;4.97;;;4.57;;
15466;SDS011;7834;49.452;11.056;2023-06-19T09:20:37;5.82;;;4.50;;
15466;SDS011;7834;49.452;11.056;2023-06-19T09:23:09;5.10;;;4.65;;
15466;SDS011;7834;49.452;11.056;2023-06-19T09:25:48;5.00;;;4.50;;
15466;SDS011;7834;49.452;11.056;2023-06-19T09:28:17;4.68;;;4.28;;
15466;SDS011;7834;49.452;11.056;2023-06-19T09:33:19;4.93;;;4.43;;
15466;SDS011;7834;49.452;11.056;2023-06-19T09:35:45;4.70;;;4.20;;
15466;SDS011;7834;49.452;11.056;2023-06-19T09:38:11;4.70;;;4.30;;
15466;SDS011;7834;49.452;11.056;2023-06-19T09:40:38;4.68;;;4.30;;
15466;SDS011;7834;49.452;11.056;2023-06-19T09:43:04;4.85;;;4.45;;
15466;SDS011;7834;49.452;11.056;2023-06-19T09:45:30;4.78;;;4.38;;
15466;SDS011;7834;49.452;11.056;2023-06-19T09:47:56;5.00;;;4.45;;
15466;SDS011;7834;49.452;11.056;2023-06-19T09:50:23;5.60;;;4.47;;
15466;SDS011;7834;49.452;11.056;2023-06-19T09:52:52;5.13;;;4.63;;
15466;SDS011;7834;49.452;11.056;2023-06-19T09:55:19;5.35;;;4.72;;
15466;SDS011;7834;49.452;11.056;2023-06-19T09:57:45;5.72;;;4.60;;
15466;SDS011;7834;49.452;11.056;2023-06-19T10:00:12;6.88;;;4.95;;
15466;SDS011;7834;49.452;11.056;2023-06-19T10:02:41;5.75;;;5.15;;
15466;SDS011;7834;49.452;11.056;2023-06-19T10:05:08;5.60;;;5.10;;
15466;SDS011;7834;49.452;11.056;2023-06-19T10:07:37;5.40;;;4.80;;
15466;SDS011;7834;49.452;11.056;2023-06-19T10:10:05;4.88;;;4.47;;
15466;SDS011;7834;49.452;11.056;2023-06-19T10:15:10;9.13;;;8.33;;
15466;SDS011;7834;49.452;11.056;2023-06-19T10:17:37;5.20;;;4.70;;
15466;SDS011;7834;49.452;11.056;2023-06-19T10:20:04;5.15;;;4.65;;
15466;SDS011;7834;49.452;11.056;2023-06-19T10:22:36;5.72;;;5.10;;
15466;SDS011;7834;49.452;11.056;2023-06-19T10:25:02;5.53;;;5.05;;
15466;SDS011;7834;49.452;11.056;2023-06-19T10:27:33;6.57;;;4.90;;
15466;SDS011;7834;49.452;11.056;2023-06-19T10:29:59;5.35;;;4.82;;
15466;SDS011;7834;49.452;11.056;2023-06-19T10:32:25;5.07;;;4.50;;
15466;SDS011;7834;49.452;11.056;2023-06-19T10:34:51;5.22;;;4.72;;
15466;SDS011;7834;49.452;11.056;2023-06-19T10:37:17;5.30;;;4.90;;
15466;SDS011;7834;49.452;11.056;2023-06-19T10:39:43;5.20;;;4.70;;
15466;SDS011;7834;49.452;11.056;2023-06-19T10:42:10;4.90;;;4.40;;
15466;SDS011;7834;49.452;11.056;2023-06-19T10:44:36;5.20;;;4.78;;
15466;SDS011;7834;49.452;11.056;2023-06-19T10:47:03;5.07;;;4.68;;
15466;SDS011;7834;49.452;11.056;2023-06-19T10:49:30;4.97;;;4.57;;
15466;SDS011;7834;49.452;11.056;2023-06-19T10:51:58;4.82;;;4.43;;
15466;SDS011;7834;49.452;11.056;2023-06-19T10:54:25;4.82;;;4.32;;
15466;SDS011;7834;49.452;11.056;2023-06-19T10:56:51;5.10;;;4.60;;
15466;SDS011;7834;49.452;11.056;2023-06-19T10:59:17;5.22;;;4.75;;
15466;SDS011;7834;49.452;11.056;2023-06-19T11:01:47;6.05;;;5.45;;
15466;SDS011;7834;49.452;11.056;2023-06-19T11:04:14;6.38;;;5.47;;
15466;SDS011;7834;49.452;11.056;2023-06-19T11:06:41;6.88;;;6.18;;
15466;SDS011;7834;49.452;11.056;2023-06-19T11:09:07;8.93;;;6.80;;
15466;SDS011;7834;49.452;11.056;2023-06-19T11:11:43;7.15;;;6.55;;
15466;SDS011;7834;49.452;11.056;2023-06-19T11:14:10;8.27;;;6.82;;
15466;SDS011;7834;49.452;11.056;2023-06-19T11:16:40;7.85;;;7.05;;
15466;SDS011;7834;49.452;11.056;2023-06-19T11:19:07;7.93;;;7.13;;
15466;SDS011;7834;49.452;11.056;2023-06-19T11:21:34;7.20;;;6.50;;
15466;SDS011;7834;49.452;11.056;2023-06-19T11:24:03;6.28;;;5.63;;
15466;SDS011;7834;49.452;11.056;2023-06-19T11:26:34;6.72;;;5.88;;
15466;SDS011;7834;49.452;11.056;2023-06-19T11:29:01;5.70;;;5.18;;
15466;SDS011;7834;49.452;11.056;2023-06-19T11:31:28;5.25;;;4.75;;
15466;SDS011;7834;49.452;11.056;2023-06-19T11:33:58;5.35;;;4.80;;
15466;SDS011;7834;49.452;11.056;2023-06-19T11:36:24;4.97;;;4.57;;
15466;SDS011;7834;49.452;11.056;2023-06-19T11:38:53;5.68;;;5.18;;
15466;SDS011;7834;49.452;11.056;2023-06-19T11:41:28;5.30;;;4.80;;
15466;SDS011;7834;49.452;11.056;2023-06-19T11:44:02;5.17;;;4.77;;
15466;SDS011;7834;49.452;11.056;2023-06-19T11:46:32;5.30;;;4.90;;
15466;SDS011;7834;49.452;11.056;2023-06-19T11:49:08;5.78;;;5.28;;
15466;SDS011;7834;49.452;11.056;2023-06-19T11:51:34;5.97;;;5.00;;
15466;SDS011;7834;49.452;11.056;2023-06-19T11:54:01;5.95;;;5.35;;
15466;SDS011;7834;49.452;11.056;2023-06-19T11:56:28;5.50;;;5.00;;
15466;SDS011;7834;49.452;11.056;2023-06-19T11:58:54;5.15;;;4.72;;
15466;SDS011;7834;49.452;11.056;2023-06-19T12:01:20;5.20;;;4.80;;
15466;SDS011;7834;49.452;11.056;2023-06-19T12:03:46;5.80;;;5.30;;
15466;SDS011;7834;49.452;11.056;2023-06-19T12:06:12;6.30;;;5.82;;
15466;SDS011;7834;49.452;11.056;2023-06-19T12:08:38;6.20;;;5.70;;
15466;SDS011;7834;49.452;11.056;2023-06-19T12:11:04;6.75;;;6.15;;
15466;SDS011;7834;49.452;11.056;2023-06-19T12:13:33;6.13;;;5.63;;
15466;SDS011;7834;49.452;11.056;2023-06-19T12:15:59;7.35;;;6.68;;
15466;SDS011;7834;49.452;11.056;2023-06-19T12:18:25;6.60;;;6.00;;
15466;SDS011;7834;49.452;11.056;2023-06-19T12:20:51;6.40;;;5.85;;
15466;SDS011;7834;49.452;11.056;2023-06-19T12:23:17;6.05;;;5.45;;
15466;SDS011;7834;49.452;11.056;2023-06-19T12:25:44;6.00;;;5.10;;
15466;SDS011;7834;49.452;11.056;2023-06-19T12:28:10;5.30;;;4.80;;
15466;SDS011;7834;49.452;11.056;2023-06-19T12:30:36;6.25;;;5.65;;
15466;SDS011;7834;49.452;11.056;2023-06-19T12:33:03;6.00;;;5.57;;
15466;SDS011;7834;49.452;11.056;2023-06-19T12:35:29;6.27;;;5.70;;
15466;SDS011;7834;49.452;11.056;2023-06-19T12:37:55;6.40;;;5.90;;
15466;SDS011;7834;49.452;11.056;2023-06-19T12:40:21;6.93;;;6.05;;
15466;SDS011;7834;49.452;11.056;2023-06-19T12:42:47;6.68;;;5.85;;
15466;SDS011;7834;49.452;11.056;2023-06-19T12:45:15;6.60;;;6.10;;
15466;SDS011;7834;49.452;11.056;2023-06-19T12:47:41;7.05;;;6.35;;
15466;SDS011;7834;49.452;11.056;2023-06-19T12:50:07;7.50;;;6.40;;
15466;SDS011;7834;49.452;11.056;2023-06-19T12:52:33;7.10;;;6.22;;
15466;SDS011;7834;49.452;11.056;2023-06-19T12:55:00;7.57;;;6.65;;
15466;SDS011;7834;49.452;11.056;2023-06-19T12:57:26;7.68;;;6.97;;
15466;SDS011;7834;49.452;11.056;2023-06-19T12:59:52;7.40;;;6.65;;
15466;SDS011;7834;49.452;11.056;2023-06-19T13:02:18;8.15;;;7.05;;
15466;SDS011;7834;49.452;11.056;2023-06-19T13:04:44;6.40;;;6.00;;
15466;SDS011;7834;49.452;11.056;2023-06-19T13:07:10;6.40;;;5.90;;
15466;SDS011;7834;49.452;11.056;2023-06-19T13:09:37;6.18;;;5.57;;
15466;SDS011;7834;49.452;11.056;2023-06-19T13:12:04;6.80;;;6.20;;
15466;SDS011;7834;49.452;11.056;2023-06-19T13:14:30;6.63;;;6.10;;
15466;SDS011;7834;49.452;11.056;2023-06-19T13:16:59;7.25;;;6.20;;
15466;SDS011;7834;49.452;11.056;2023-06-19T13:19:25;7.45;;;6.75;;
15466;SDS011;7834;49.452;11.056;2023-06-19T13:21:51;7.55;;;6.93;;
15466;SDS011;7834;49.452;11.056;2023-06-19T13:24:17;7.80;;;7.00;;
15466;SDS011;7834;49.452;11.056;2023-06-19T13:26:44;7.78;;;7.05;;
15466;SDS011;7834;49.452;11.056;2023-06-19T13:29:13;7.43;;;6.73;;
15466;SDS011;7834;49.452;11.056;2023-06-19T13:31:39;7.53;;;6.82;;
15466;SDS011;7834;49.452;11.056;2023-06-19T13:34:05;7.83;;;6.90;;
15466;SDS011;7834;49.452;11.056;2023-06-19T13:36:32;7.55;;;6.82;;
15466;SDS011;7834;49.452;11.056;2023-06-19T13:38:58;7.57;;;6.88;;
15466;SDS011;7834;49.452;11.056;2023-06-19T13:41:24;7.78;;;6.97;;
15466;SDS011;7834;49.452;11.056;2023-06-19T13:43:53;7.30;;;6.60;;
15466;SDS011;7834;49.452;11.056;2023-06-19T13:46:20;7.05;;;6.38;;
15466;SDS011;7834;49.452;11.056;2023-06-19T13:48:47;7.43;;;6.63;;
15466;SDS011;7834;49.452;11.056;2023-06-19T13:51:16;7.97;;;6.93;;
15466;SDS011;7834;49.452;11.056;2023-06-19T13:53:42;7.90;;;7.20;;
15466;SDS011;7834;49.452;11.056;2023-06-19T13:56:08;7.60;;;6.95;;
15466;SDS011;7834;49.452;11.056;2023-06-19T13:58:34;9.13;;;7.25;;
15466;SDS011;7834;49.452;11.056;2023-06-19T14:01:00;7.28;;;6.68;;
15466;SDS011;7834;49.452;11.056;2023-06-19T14:03:26;6.90;;;6.40;;
15466;SDS011;7834;49.452;11.056;2023-06-19T14:05:52;7.27;;;6.50;;
15466;SDS011;7834;49.452;11.056;2023-06-19T14:08:18;6.95;;;6.28;;
15466;SDS011;7834;49.452;11.056;2023-06-19T14:10:44;6.40;;;5.90;;
15466;SDS011;7834;49.452;11.056;2023-06-19T14:13:10;7.03;;;6.40;;
15466;SDS011;7834;49.452;11.056;2023-06-19T14:15:36;6.70;;;6.10;;
15466;SDS011;7834;49.452;11.056;2023-06-19T14:18:02;6.67;;;6.17;;
15466;SDS011;7834;49.452;11.056;2023-06-19T14:20:28;6.72;;;6.03;;
15466;SDS011;7834;49.452;11.056;2023-06-19T14:22:54;6.85;;;5.57;;
15466;SDS011;7834;49.452;11.056;2023-06-19T14:25:20;6.40;;;5.40;;
15466;SDS011;7834;49.452;11.056;2023-06-19T14:27:46;6.90;;;5.80;;
15466;SDS011;7834;49.452;11.056;2023-06-19T14:30:12;6.50;;;5.90;;
15466;SDS011;7834;49.452;11.056;2023-06-19T14:32:39;6.20;;;5.60;;
15466;SDS011;7834;49.452;11.056;2023-06-19T14:35:05;7.87;;;5.80;;
15466;SDS011;7834;49.452;11.056;2023-06-19T14:37:31;5.80;;;5.30;;
15466;SDS011;7834;49.452;11.056;2023-06-19T14:39:58;6.43;;;5.82;;
15466;SDS011;7834;49.452;11.056;2023-06-19T14:42:24;7.70;;;5.32;;
15466;SDS011;7834;49.452;11.056;2023-06-19T14:44:50;5.60;;;5.10;;
15466;SDS011;7834;49.452;11.056;2023-06-19T14:47:16;6.10;;;5.10;;